sensor_id;sensor_type;location;lat;lon;timestamp;temperature;humidity
67502;SHT30;54349;52.528;19.760;2023-05-29T00:02:00;22.05;44.09
67502;SHT30;54349;52.528;19.760;2023-05-29T00:04:28;22.12;44.23
67502;SHT30;54349;52.528;19.760;2023-05-29T00:06:57;22.32;43.97
67502;SHT30;54349;52.528;19.760;2023-05-29T00:09:25;22.51;43.69
67502;SHT30;54349;52.528;19.760;2023-05-29T00:11:54;22.52;42.76
67502;SHT30;54349;52.528;19.760;2023-05-29T00:14:22;22.06;43.63
67502;SHT30;54349;52.528;19.760;2023-05-29T00:16:51;22.06;43.91
67502;SHT30;54349;52.528;19.760;2023-05-29T00:19:20;22.25;43.71
67502;SHT30;54349;52.528;19.760;2023-05-29T00:21:49;22.42;43.44
67502;SHT30;54349;52.528;19.760;2023-05-29T00:24:17;22.49;42.69
67502;SHT30;54349;52.528;19.760;2023-05-29T00:26:46;22.16;43.28
67502;SHT30;54349;52.528;19.760;2023-05-29T00:29:14;22.19;43.47
67502;SHT30;54349;52.528;19.760;2023-05-29T00:31:43;22.36;43.26
67502;SHT30;54349;52.528;19.760;2023-05-29T00:34:11;22.50;43.04
67502;SHT30;54349;52.528;19.760;2023-05-29T00:36:40;22.60;42.57
67502;SHT30;54349;52.528;19.760;2023-05-29T00:39:08;22.27;42.61
67502;SHT30;54349;52.528;19.760;2023-05-29T00:41:37;22.15;43.20
67502;SHT30;54349;52.528;19.760;2023-05-29T00:44:05;22.29;43.11
67502;SHT30;54349;52.528;19.760;2023-05-29T00:46:34;22.45;42.91
67502;SHT30;54349;52.528;19.760;2023-05-29T00:49:03;22.53;42.30
67502;SHT30;54349;52.528;19.760;2023-05-29T00:51:33;22.20;42.71
67502;SHT30;54349;52.528;19.760;2023-05-29T00:54:02;22.16;43.00
67502;SHT30;54349;52.528;19.760;2023-05-29T00:56:30;22.32;42.89
67502;SHT30;54349;52.528;19.760;2023-05-29T00:58:59;22.45;42.69
67502;SHT30;54349;52.528;19.760;2023-05-29T01:01:27;22.56;42.38
67502;SHT30;54349;52.528;19.760;2023-05-29T01:03:59;22.31;42.16
67502;SHT30;54349;52.528;19.760;2023-05-29T01:06:34;22.13;42.86
67502;SHT30;54349;52.528;19.760;2023-05-29T01:09:04;22.26;42.76
67502;SHT30;54349;52.528;19.760;2023-05-29T01:20:38;22.14;42.73
67502;SHT30;54349;52.528;19.760;2023-05-29T01:29:04;22.55;42.27
67502;SHT30;54349;52.528;19.760;2023-05-29T01:31:35;22.47;41.67
67502;SHT30;54349;52.528;19.760;2023-05-29T01:34:06;22.13;42.57
67502;SHT30;54349;52.528;19.760;2023-05-29T01:36:35;22.18;42.60
67502;SHT30;54349;52.528;19.760;2023-05-29T01:39:04;22.32;42.47
67502;SHT30;54349;52.528;19.760;2023-05-29T01:41:33;22.43;42.29
67502;SHT30;54349;52.528;19.760;2023-05-29T01:44:06;22.53;42.17
67502;SHT30;54349;52.528;19.760;2023-05-29T01:46:37;22.53;41.56
67502;SHT30;54349;52.528;19.760;2023-05-29T01:49:08;22.13;42.37
67502;SHT30;54349;52.528;19.760;2023-05-29T01:51:39;22.13;42.51
67502;SHT30;54349;52.528;19.760;2023-05-29T01:54:09;22.25;42.41
67502;SHT30;54349;52.528;19.760;2023-05-29T01:56:39;22.37;42.29
67502;SHT30;54349;52.528;19.760;2023-05-29T01:59:08;22.48;42.11
67502;SHT30;54349;52.528;19.760;2023-05-29T02:01:40;22.56;41.76
67502;SHT30;54349;52.528;19.760;2023-05-29T02:04:09;22.23;41.80
67502;SHT30;54349;52.528;19.760;2023-05-29T02:06:39;22.08;42.43
67502;SHT30;54349;52.528;19.760;2023-05-29T02:09:09;22.18;42.39
67502;SHT30;54349;52.528;19.760;2023-05-29T02:11:38;22.30;42.25
67502;SHT30;54349;52.528;19.760;2023-05-29T02:14:12;22.40;42.10
67502;SHT30;54349;52.528;19.760;2023-05-29T02:16:41;22.49;41.88
67502;SHT30;54349;52.528;19.760;2023-05-29T02:19:12;22.25;41.81
67502;SHT30;54349;52.528;19.760;2023-05-29T02:21:40;22.05;42.40
67502;SHT30;54349;52.528;19.760;2023-05-29T02:24:09;22.14;42.37
67502;SHT30;54349;52.528;19.760;2023-05-29T02:26:37;22.26;42.24
67502;SHT30;54349;52.528;19.760;2023-05-29T02:29:05;22.37;42.12
67502;SHT30;54349;52.528;19.760;2023-05-29T02:31:34;22.45;41.97
67502;SHT30;54349;52.528;19.760;2023-05-29T02:34:04;22.46;41.60
67502;SHT30;54349;52.528;19.760;2023-05-29T02:36:33;22.07;42.23
67502;SHT30;54349;52.528;19.760;2023-05-29T02:39:03;22.01;42.46
67502;SHT30;54349;52.528;19.760;2023-05-29T02:41:33;22.12;42.37
67502;SHT30;54349;52.528;19.760;2023-05-29T02:44:01;22.23;42.26
67502;SHT30;54349;52.528;19.760;2023-05-29T02:46:30;22.34;42.13
67502;SHT30;54349;52.528;19.760;2023-05-29T02:48:58;22.42;41.98
67502;SHT30;54349;52.528;19.760;2023-05-29T02:51:26;22.31;41.62
67502;SHT30;54349;52.528;19.760;2023-05-29T02:53:55;21.98;42.40
67502;SHT30;54349;52.528;19.760;2023-05-29T02:56:24;22.03;42.46
67502;SHT30;54349;52.528;19.760;2023-05-29T02:58:52;22.14;42.33
67502;SHT30;54349;52.528;19.760;2023-05-29T03:01:20;22.24;42.20
67502;SHT30;54349;52.528;19.760;2023-05-29T03:03:49;22.33;42.07
67502;SHT30;54349;52.528;19.760;2023-05-29T03:06:18;22.40;41.97
67502;SHT30;54349;52.528;19.760;2023-05-29T03:08:46;22.35;41.59
67502;SHT30;54349;52.528;19.760;2023-05-29T03:11:14;21.98;42.32
67502;SHT30;54349;52.528;19.760;2023-05-29T03:13:43;21.99;42.43
67502;SHT30;54349;52.528;19.760;2023-05-29T03:16:14;22.09;42.34
67502;SHT30;54349;52.528;19.760;2023-05-29T03:18:43;22.20;42.22
67502;SHT30;54349;52.528;19.760;2023-05-29T03:21:13;22.30;42.08
67502;SHT30;54349;52.528;19.760;2023-05-29T03:23:42;22.37;42.00
67502;SHT30;54349;52.528;19.760;2023-05-29T03:26:10;22.31;41.56
67502;SHT30;54349;52.528;19.760;2023-05-29T03:28:40;21.95;42.36
67502;SHT30;54349;52.528;19.760;2023-05-29T03:31:09;21.96;42.48
67502;SHT30;54349;52.528;19.760;2023-05-29T03:33:38;22.07;42.37
67502;SHT30;54349;52.528;19.760;2023-05-29T03:36:21;22.18;42.24
67502;SHT30;54349;52.528;19.760;2023-05-29T03:38:50;22.27;42.09
67502;SHT30;54349;52.528;19.760;2023-05-29T03:41:19;22.34;42.00
67502;SHT30;54349;52.528;19.760;2023-05-29T03:43:50;22.31;41.72
67502;SHT30;54349;52.528;19.760;2023-05-29T03:46:20;21.92;42.42
67502;SHT30;54349;52.528;19.760;2023-05-29T03:48:48;21.93;42.55
67502;SHT30;54349;52.528;19.760;2023-05-29T03:51:17;22.05;42.45
67502;SHT30;54349;52.528;19.760;2023-05-29T03:53:46;22.15;42.32
67502;SHT30;54349;52.528;19.760;2023-05-29T03:56:14;22.24;42.20
67502;SHT30;54349;52.528;19.760;2023-05-29T03:58:42;22.32;42.07
67502;SHT30;54349;52.528;19.760;2023-05-29T04:01:12;22.34;41.84
67502;SHT30;54349;52.528;19.760;2023-05-29T04:03:41;21.99;42.41
67502;SHT30;54349;52.528;19.760;2023-05-29T04:06:12;21.90;42.61
67502;SHT30;54349;52.528;19.760;2023-05-29T04:08:41;22.00;42.58
67502;SHT30;54349;52.528;19.760;2023-05-29T04:11:09;22.12;42.45
67502;SHT30;54349;52.528;19.760;2023-05-29T04:13:39;22.20;42.35
67502;SHT30;54349;52.528;19.760;2023-05-29T04:16:10;22.27;42.26
67502;SHT30;54349;52.528;19.760;2023-05-29T04:18:38;22.32;41.54
67502;SHT30;54349;52.528;19.760;2023-05-29T04:21:06;21.95;42.16
67502;SHT30;54349;52.528;19.760;2023-05-29T04:23:35;21.81;42.58
67502;SHT30;54349;52.528;19.760;2023-05-29T04:26:04;21.90;42.56
67502;SHT30;54349;52.528;19.760;2023-05-29T04:28:35;22.03;42.47
67502;SHT30;54349;52.528;19.760;2023-05-29T04:31:05;22.12;42.39
67502;SHT30;54349;52.528;19.760;2023-05-29T04:33:37;22.21;42.25
67502;SHT30;54349;52.528;19.760;2023-05-29T04:36:06;22.29;42.18
67502;SHT30;54349;52.528;19.760;2023-05-29T04:38:37;22.20;42.30
67502;SHT30;54349;52.528;19.760;2023-05-29T04:41:06;21.85;42.83
67502;SHT30;54349;52.528;19.760;2023-05-29T04:43:36;21.89;42.83
67502;SHT30;54349;52.528;19.760;2023-05-29T04:46:06;22.00;42.77
67502;SHT30;54349;52.528;19.760;2023-05-29T04:48:36;22.10;42.64
67502;SHT30;54349;52.528;19.760;2023-05-29T04:51:09;22.19;42.55
67502;SHT30;54349;52.528;19.760;2023-05-29T04:53:39;22.27;42.42
67502;SHT30;54349;52.528;19.760;2023-05-29T04:56:09;22.28;42.40
67502;SHT30;54349;52.528;19.760;2023-05-29T04:58:38;21.93;43.04
67502;SHT30;54349;52.528;19.760;2023-05-29T05:01:07;21.89;43.09
67502;SHT30;54349;52.528;19.760;2023-05-29T05:03:37;21.99;43.00
67502;SHT30;54349;52.528;19.760;2023-05-29T05:06:06;22.10;42.90
67502;SHT30;54349;52.528;19.760;2023-05-29T05:08:36;22.18;42.81
67502;SHT30;54349;52.528;19.760;2023-05-29T05:11:05;22.25;42.76
67502;SHT30;54349;52.528;19.760;2023-05-29T05:13:34;22.28;42.66
67502;SHT30;54349;52.528;19.760;2023-05-29T05:16:03;21.95;43.24
67502;SHT30;54349;52.528;19.760;2023-05-29T05:18:32;21.92;43.30
67502;SHT30;54349;52.528;19.760;2023-05-29T05:21:03;22.03;43.20
67502;SHT30;54349;52.528;19.760;2023-05-29T05:23:33;22.12;43.09
67502;SHT30;54349;52.528;19.760;2023-05-29T05:26:20;22.21;43.01
67502;SHT30;54349;52.528;19.760;2023-05-29T05:28:50;22.28;42.90
67502;SHT30;54349;52.528;19.760;2023-05-29T05:31:18;22.10;43.30
67502;SHT30;54349;52.528;19.760;2023-05-29T05:33:47;21.91;43.50
67502;SHT30;54349;52.528;19.760;2023-05-29T05:36:17;21.99;43.43
67502;SHT30;54349;52.528;19.760;2023-05-29T05:38:45;22.10;43.33
67502;SHT30;54349;52.528;19.760;2023-05-29T05:41:14;22.18;43.24
67502;SHT30;54349;52.528;19.760;2023-05-29T05:43:42;22.26;43.13
67502;SHT30;54349;52.528;19.760;2023-05-29T05:46:19;22.13;43.50
67502;SHT30;54349;52.528;19.760;2023-05-29T05:48:47;21.88;43.73
67502;SHT30;54349;52.528;19.760;2023-05-29T05:51:16;21.96;43.82
67502;SHT30;54349;52.528;19.760;2023-05-29T05:53:44;22.09;44.20
67502;SHT30;54349;52.528;19.760;2023-05-29T05:56:14;22.21;44.22
67502;SHT30;54349;52.528;19.760;2023-05-29T05:58:42;22.32;44.19
67502;SHT30;54349;52.528;19.760;2023-05-29T06:01:11;22.18;44.67
67502;SHT30;54349;52.528;19.760;2023-05-29T06:03:39;22.00;45.13
67502;SHT30;54349;52.528;19.760;2023-05-29T06:06:09;22.13;45.18
67502;SHT30;54349;52.528;19.760;2023-05-29T06:08:40;22.29;45.15
67502;SHT30;54349;52.528;19.760;2023-05-29T06:11:09;22.44;45.24
67502;SHT30;54349;52.528;19.760;2023-05-29T06:13:39;22.45;45.16
67502;SHT30;54349;52.528;19.760;2023-05-29T06:16:14;22.03;46.26
67502;SHT30;54349;52.528;19.760;2023-05-29T06:18:43;22.05;46.63
67502;SHT30;54349;52.528;19.760;2023-05-29T06:21:12;22.22;46.73
67502;SHT30;54349;52.528;19.760;2023-05-29T06:23:48;22.39;46.67
67502;SHT30;54349;52.528;19.760;2023-05-29T06:26:17;22.44;46.50
67502;SHT30;54349;52.528;19.760;2023-05-29T06:28:47;22.02;47.18
67502;SHT30;54349;52.528;19.760;2023-05-29T06:31:16;21.90;47.62
67502;SHT30;54349;52.528;19.760;2023-05-29T06:33:45;22.09;47.52
67502;SHT30;54349;52.528;19.760;2023-05-29T06:36:14;22.29;47.16
67502;SHT30;54349;52.528;19.760;2023-05-29T06:38:47;22.31;46.95
67502;SHT30;54349;52.528;19.760;2023-05-29T06:41:19;21.87;47.70
67502;SHT30;54349;52.528;19.760;2023-05-29T06:43:49;21.67;48.30
67502;SHT30;54349;52.528;19.760;2023-05-29T06:46:21;21.89;48.02
67502;SHT30;54349;52.528;19.760;2023-05-29T06:48:50;22.12;47.44
67502;SHT30;54349;52.528;19.760;2023-05-29T06:51:22;22.26;47.05
67502;SHT30;54349;52.528;19.760;2023-05-29T06:53:57;21.89;47.58
67502;SHT30;54349;52.528;19.760;2023-05-29T06:56:27;21.60;48.17
67502;SHT30;54349;52.528;19.760;2023-05-29T06:58:56;21.77;48.36
67502;SHT30;54349;52.528;19.760;2023-05-29T07:01:25;22.03;47.56
67502;SHT30;54349;52.528;19.760;2023-05-29T07:04:00;22.22;46.90
67502;SHT30;54349;52.528;19.760;2023-05-29T07:06:29;22.01;47.90
67502;SHT30;54349;52.528;19.760;2023-05-29T07:08:59;21.63;49.48
67502;SHT30;54349;52.528;19.760;2023-05-29T07:11:28;21.70;50.68
67502;SHT30;54349;52.528;19.760;2023-05-29T07:13:57;21.98;50.45
67502;SHT30;54349;52.528;19.760;2023-05-29T07:16:26;22.20;50.11
67502;SHT30;54349;52.528;19.760;2023-05-29T07:19:04;22.03;50.09
67502;SHT30;54349;52.528;19.760;2023-05-29T07:21:36;21.60;50.60
67502;SHT30;54349;52.528;19.760;2023-05-29T07:24:05;21.30;50.18
67502;SHT30;54349;52.528;19.760;2023-05-29T07:26:35;21.13;51.28
67502;SHT30;54349;52.528;19.760;2023-05-29T07:29:03;21.41;51.89
67502;SHT30;54349;52.528;19.760;2023-05-29T07:31:33;21.72;51.32
67502;SHT30;54349;52.528;19.760;2023-05-29T07:34:02;22.00;50.85
67502;SHT30;54349;52.528;19.760;2023-05-29T07:36:30;22.07;50.56
67502;SHT30;54349;52.528;19.760;2023-05-29T07:39:00;21.70;50.83
67502;SHT30;54349;52.528;19.760;2023-05-29T07:41:29;21.34;49.43
67502;SHT30;54349;52.528;19.760;2023-05-29T07:44:00;21.10;49.19
67502;SHT30;54349;52.528;19.760;2023-05-29T07:46:31;21.18;49.85
67502;SHT30;54349;52.528;19.760;2023-05-29T07:49:20;21.54;49.05
67502;SHT30;54349;52.528;19.760;2023-05-29T07:51:49;21.83;48.25
67502;SHT30;54349;52.528;19.760;2023-05-29T07:54:19;21.93;48.35
67502;SHT30;54349;52.528;19.760;2023-05-29T07:56:49;21.60;48.93
67502;SHT30;54349;52.528;19.760;2023-05-29T07:59:18;21.29;48.04
67502;SHT30;54349;52.528;19.760;2023-05-29T08:01:47;21.10;47.75
67502;SHT30;54349;52.528;19.760;2023-05-29T08:04:30;20.95;48.31
67502;SHT30;54349;52.528;19.760;2023-05-29T08:07:01;21.24;48.05
67502;SHT30;54349;52.528;19.760;2023-05-29T08:09:35;21.60;47.43
67502;SHT30;54349;52.528;19.760;2023-05-29T08:12:04;21.91;47.35
67502;SHT30;54349;52.528;19.760;2023-05-29T08:14:34;21.85;47.82
67502;SHT30;54349;52.528;19.760;2023-05-29T08:17:03;21.52;48.00
67502;SHT30;54349;52.528;19.760;2023-05-29T08:19:31;21.26;47.12
67502;SHT30;54349;52.528;19.760;2023-05-29T08:22:00;21.08;47.41
67502;SHT30;54349;52.528;19.760;2023-05-29T08:24:28;20.93;47.98
67502;SHT30;54349;52.528;19.760;2023-05-29T08:26:57;21.19;47.90
67502;SHT30;54349;52.528;19.760;2023-05-29T08:29:26;21.56;47.08
67502;SHT30;54349;52.528;19.760;2023-05-29T08:31:55;21.89;46.40
67502;SHT30;54349;52.528;19.760;2023-05-29T08:34:23;21.89;47.09
67502;SHT30;54349;52.528;19.760;2023-05-29T08:36:52;21.56;47.15
67502;SHT30;54349;52.528;19.760;2023-05-29T08:39:23;21.28;46.47
67502;SHT30;54349;52.528;19.760;2023-05-29T08:42:07;21.09;46.83
67502;SHT30;54349;52.528;19.760;2023-05-29T08:44:46;21.16;47.14
67502;SHT30;54349;52.528;19.760;2023-05-29T08:47:18;21.52;46.61
67502;SHT30;54349;52.528;19.760;2023-05-29T08:49:51;21.85;46.22
67502;SHT30;54349;52.528;19.760;2023-05-29T08:52:24;21.85;46.71
67502;SHT30;54349;52.528;19.760;2023-05-29T08:54:54;21.54;46.74
67502;SHT30;54349;52.528;19.760;2023-05-29T08:57:23;21.32;46.18
67502;SHT30;54349;52.528;19.760;2023-05-29T08:59:53;21.11;46.47
67502;SHT30;54349;52.528;19.760;2023-05-29T09:02:24;20.96;46.80
67502;SHT30;54349;52.528;19.760;2023-05-29T09:04:52;21.26;46.54
67502;SHT30;54349;52.528;19.760;2023-05-29T09:07:22;21.65;45.68
67502;SHT30;54349;52.528;19.760;2023-05-29T09:09:53;21.95;45.66
67502;SHT30;54349;52.528;19.760;2023-05-29T09:12:21;21.81;46.33
67502;SHT30;54349;52.528;19.760;2023-05-29T09:14:50;21.53;46.63
67502;SHT30;54349;52.528;19.760;2023-05-29T09:17:19;21.33;46.90
67502;SHT30;54349;52.528;19.760;2023-05-29T09:19:47;21.11;47.27
67502;SHT30;54349;52.528;19.760;2023-05-29T09:22:18;21.01;48.12
67502;SHT30;54349;52.528;19.760;2023-05-29T09:24:47;21.36;47.65
67502;SHT30;54349;52.528;19.760;2023-05-29T09:27:17;21.74;46.91
67502;SHT30;54349;52.528;19.760;2023-05-29T09:29:46;21.94;46.36
67502;SHT30;54349;52.528;19.760;2023-05-29T09:32:15;21.72;46.15
67502;SHT30;54349;52.528;19.760;2023-05-29T09:34:45;21.50;45.42
67502;SHT30;54349;52.528;19.760;2023-05-29T09:37:14;21.30;45.69
67502;SHT30;54349;52.528;19.760;2023-05-29T09:39:45;21.07;46.16
67502;SHT30;54349;52.528;19.760;2023-05-29T09:42:17;21.00;46.36
67502;SHT30;54349;52.528;19.760;2023-05-29T09:44:48;21.38;45.81
67502;SHT30;54349;52.528;19.760;2023-05-29T09:47:21;21.79;44.99
67502;SHT30;54349;52.528;19.760;2023-05-29T09:49:49;21.97;44.56
67502;SHT30;54349;52.528;19.760;2023-05-29T09:52:20;21.77;44.64
67502;SHT30;54349;52.528;19.760;2023-05-29T09:54:50;21.55;44.71
67502;SHT30;54349;52.528;19.760;2023-05-29T09:57:20;21.35;44.95
67502;SHT30;54349;52.528;19.760;2023-05-29T09:59:55;21.11;45.33
67502;SHT30;54349;52.528;19.760;2023-05-29T10:02:23;21.15;45.39
67502;SHT30;54349;52.528;19.760;2023-05-29T10:04:53;21.56;44.74
67502;SHT30;54349;52.528;19.760;2023-05-29T10:07:29;21.93;44.41
67502;SHT30;54349;52.528;19.760;2023-05-29T10:10:02;21.99;43.75
67502;SHT30;54349;52.528;19.760;2023-05-29T10:12:37;21.73;43.98
67502;SHT30;54349;52.528;19.760;2023-05-29T10:15:14;21.49;44.10
67502;SHT30;54349;52.528;19.760;2023-05-29T10:17:57;21.25;44.61
67502;SHT30;54349;52.528;19.760;2023-05-29T10:20:37;21.06;44.74
67502;SHT30;54349;52.528;19.760;2023-05-29T10:23:09;21.39;43.88
67502;SHT30;54349;52.528;19.760;2023-05-29T10:25:39;21.82;44.29
67502;SHT30;54349;52.528;19.760;2023-05-29T10:28:15;22.04;43.92
67502;SHT30;54349;52.528;19.760;2023-05-29T10:30:45;21.83;44.35
67502;SHT30;54349;52.528;19.760;2023-05-29T10:36:12;21.35;44.28
67502;SHT30;54349;52.528;19.760;2023-05-29T10:38:44;21.13;44.87
67502;SHT30;54349;52.528;19.760;2023-05-29T10:43:58;21.74;44.44
67502;SHT30;54349;52.528;19.760;2023-05-29T10:49:20;21.98;44.07
67502;SHT30;54349;52.528;19.760;2023-05-29T10:51:51;21.75;44.04
67502;SHT30;54349;52.528;19.760;2023-05-29T10:54:21;21.57;44.06
67502;SHT30;54349;52.528;19.760;2023-05-29T10:57:01;21.34;44.28
67502;SHT30;54349;52.528;19.760;2023-05-29T10:59:34;21.10;44.56
67502;SHT30;54349;52.528;19.760;2023-05-29T11:02:04;20.94;44.99
67502;SHT30;54349;52.528;19.760;2023-05-29T11:04:36;21.19;44.34
67502;SHT30;54349;52.528;19.760;2023-05-29T11:07:04;21.64;44.02
67502;SHT30;54349;52.528;19.760;2023-05-29T11:09:37;22.03;43.96
67502;SHT30;54349;52.528;19.760;2023-05-29T11:15:05;21.78;44.27
67502;SHT30;54349;52.528;19.760;2023-05-29T11:20:07;21.36;44.71
67502;SHT30;54349;52.528;19.760;2023-05-29T11:25:16;20.91;45.03
67502;SHT30;54349;52.528;19.760;2023-05-29T11:27:57;20.72;45.36
67502;SHT30;54349;52.528;19.760;2023-05-29T11:30:26;20.86;45.37
67502;SHT30;54349;52.528;19.760;2023-05-29T11:32:54;21.35;44.43
67502;SHT30;54349;52.528;19.760;2023-05-29T11:35:33;21.81;44.29
67502;SHT30;54349;52.528;19.760;2023-05-29T11:38:05;22.03;43.92
67502;SHT30;54349;52.528;19.760;2023-05-29T11:40:37;21.85;44.38
67502;SHT30;54349;52.528;19.760;2023-05-29T11:43:08;21.64;44.54
67502;SHT30;54349;52.528;19.760;2023-05-29T11:45:40;21.44;44.75
67502;SHT30;54349;52.528;19.760;2023-05-29T11:48:09;21.23;45.06
67502;SHT30;54349;52.528;19.760;2023-05-29T11:50:37;21.01;45.41
67502;SHT30;54349;52.528;19.760;2023-05-29T11:53:06;20.85;46.11
67502;SHT30;54349;52.528;19.760;2023-05-29T11:55:38;21.07;46.26
67502;SHT30;54349;52.528;19.760;2023-05-29T11:58:07;21.55;45.75
67502;SHT30;54349;52.528;19.760;2023-05-29T12:00:36;21.96;45.22
67502;SHT30;54349;52.528;19.760;2023-05-29T12:03:06;22.01;45.13
67502;SHT30;54349;52.528;19.760;2023-05-29T12:05:45;21.82;45.61
67502;SHT30;54349;52.528;19.760;2023-05-29T12:08:20;21.62;46.04
67502;SHT30;54349;52.528;19.760;2023-05-29T12:10:52;21.40;46.84
67502;SHT30;54349;52.528;19.760;2023-05-29T12:13:21;21.18;47.58
67502;SHT30;54349;52.528;19.760;2023-05-29T12:15:53;20.99;48.04
67502;SHT30;54349;52.528;19.760;2023-05-29T12:18:26;20.83;48.76
67502;SHT30;54349;52.528;19.760;2023-05-29T12:20:59;20.78;49.07
67502;SHT30;54349;52.528;19.760;2023-05-29T12:23:32;21.20;48.34
67502;SHT30;54349;52.528;19.760;2023-05-29T12:26:00;21.69;47.42
67502;SHT30;54349;52.528;19.760;2023-05-29T12:28:29;22.08;46.53
67502;SHT30;54349;52.528;19.760;2023-05-29T12:30:58;22.04;46.43
67502;SHT30;54349;52.528;19.760;2023-05-29T12:33:28;21.82;46.69
67502;SHT30;54349;52.528;19.760;2023-05-29T12:36:06;21.63;46.89
67502;SHT30;54349;52.528;19.760;2023-05-29T12:38:48;21.42;47.38
67502;SHT30;54349;52.528;19.760;2023-05-29T12:41:25;21.21;47.68
67502;SHT30;54349;52.528;19.760;2023-05-29T12:43:56;21.02;47.91
67502;SHT30;54349;52.528;19.760;2023-05-29T12:46:26;20.86;48.11
67502;SHT30;54349;52.528;19.760;2023-05-29T12:49:15;20.77;48.36
67502;SHT30;54349;52.528;19.760;2023-05-29T12:51:48;21.18;47.76
67502;SHT30;54349;52.528;19.760;2023-05-29T12:54:16;21.71;46.71
67502;SHT30;54349;52.528;19.760;2023-05-29T12:56:45;22.11;45.80
67502;SHT30;54349;52.528;19.760;2023-05-29T12:59:14;22.06;45.51
67502;SHT30;54349;52.528;19.760;2023-05-29T13:01:43;21.85;45.84
67502;SHT30;54349;52.528;19.760;2023-05-29T13:04:11;21.66;46.27
67502;SHT30;54349;52.528;19.760;2023-05-29T13:06:41;21.45;46.63
67502;SHT30;54349;52.528;19.760;2023-05-29T13:09:09;21.25;47.06
67502;SHT30;54349;52.528;19.760;2023-05-29T13:11:40;21.04;47.37
67502;SHT30;54349;52.528;19.760;2023-05-29T13:14:09;20.89;47.53
67502;SHT30;54349;52.528;19.760;2023-05-29T13:16:38;20.78;47.76
67502;SHT30;54349;52.528;19.760;2023-05-29T13:19:06;21.08;47.85
67502;SHT30;54349;52.528;19.760;2023-05-29T13:21:35;21.63;46.85
67502;SHT30;54349;52.528;19.760;2023-05-29T13:24:04;22.11;46.07
67502;SHT30;54349;52.528;19.760;2023-05-29T13:26:33;22.18;45.61
67502;SHT30;54349;52.528;19.760;2023-05-29T13:29:01;21.96;46.12
67502;SHT30;54349;52.528;19.760;2023-05-29T13:31:30;21.79;46.51
67502;SHT30;54349;52.528;19.760;2023-05-29T13:33:58;21.62;46.83
67502;SHT30;54349;52.528;19.760;2023-05-29T13:36:27;21.46;47.13
67502;SHT30;54349;52.528;19.760;2023-05-29T13:38:55;21.31;47.40
67502;SHT30;54349;52.528;19.760;2023-05-29T13:41:24;21.16;47.59
67502;SHT30;54349;52.528;19.760;2023-05-29T13:43:52;21.01;47.94
67502;SHT30;54349;52.528;19.760;2023-05-29T13:46:21;20.88;48.27
67502;SHT30;54349;52.528;19.760;2023-05-29T13:48:50;20.76;48.48
67502;SHT30;54349;52.528;19.760;2023-05-29T13:51:19;20.82;48.78
67502;SHT30;54349;52.528;19.760;2023-05-29T13:53:47;21.33;48.02
67502;SHT30;54349;52.528;19.760;2023-05-29T13:56:16;21.88;47.23
67502;SHT30;54349;52.528;19.760;2023-05-29T13:58:45;22.25;46.34
67502;SHT30;54349;52.528;19.760;2023-05-29T14:01:13;22.16;46.09
67502;SHT30;54349;52.528;19.760;2023-05-29T14:03:43;21.90;46.05
67502;SHT30;54349;52.528;19.760;2023-05-29T14:06:11;21.62;46.98
67502;SHT30;54349;52.528;19.760;2023-05-29T14:08:40;21.38;47.96
67502;SHT30;54349;52.528;19.760;2023-05-29T14:11:08;21.19;48.25
67502;SHT30;54349;52.528;19.760;2023-05-29T14:13:37;21.02;48.70
67502;SHT30;54349;52.528;19.760;2023-05-29T14:16:05;20.86;48.92
67502;SHT30;54349;52.528;19.760;2023-05-29T14:18:35;20.70;49.13
67502;SHT30;54349;52.528;19.760;2023-05-29T14:21:03;20.77;49.11
67502;SHT30;54349;52.528;19.760;2023-05-29T14:23:31;21.24;48.26
67502;SHT30;54349;52.528;19.760;2023-05-29T14:26:01;21.71;47.37
67502;SHT30;54349;52.528;19.760;2023-05-29T14:28:29;22.09;46.46
67502;SHT30;54349;52.528;19.760;2023-05-29T14:30:58;22.05;46.17
67502;SHT30;54349;52.528;19.760;2023-05-29T14:33:27;21.82;46.34
67502;SHT30;54349;52.528;19.760;2023-05-29T14:35:55;21.59;46.57
67502;SHT30;54349;52.528;19.760;2023-05-29T14:38:24;21.36;47.04
67502;SHT30;54349;52.528;19.760;2023-05-29T14:40:53;21.11;47.44
67502;SHT30;54349;52.528;19.760;2023-05-29T14:43:37;20.97;47.77
67502;SHT30;54349;52.528;19.760;2023-05-29T14:46:07;21.30;47.25
67502;SHT30;54349;52.528;19.760;2023-05-29T14:48:38;21.79;46.50
67502;SHT30;54349;52.528;19.760;2023-05-29T14:51:06;22.16;45.64
67502;SHT30;54349;52.528;19.760;2023-05-29T14:53:36;22.16;45.15
67502;SHT30;54349;52.528;19.760;2023-05-29T14:56:05;21.95;45.32
67502;SHT30;54349;52.528;19.760;2023-05-29T14:58:35;21.75;45.61
67502;SHT30;54349;52.528;19.760;2023-05-29T15:01:04;21.54;45.90
67502;SHT30;54349;52.528;19.760;2023-05-29T15:03:33;21.29;46.21
67502;SHT30;54349;52.528;19.760;2023-05-29T15:06:03;21.07;46.53
67502;SHT30;54349;52.528;19.760;2023-05-29T15:08:34;20.94;46.66
67502;SHT30;54349;52.528;19.760;2023-05-29T15:11:03;21.25;46.11
67502;SHT30;54349;52.528;19.760;2023-05-29T15:13:32;21.70;45.23
67502;SHT30;54349;52.528;19.760;2023-05-29T15:16:01;22.10;44.70
67502;SHT30;54349;52.528;19.760;2023-05-29T15:18:33;22.19;44.18
67502;SHT30;54349;52.528;19.760;2023-05-29T15:21:02;21.96;44.45
67502;SHT30;54349;52.528;19.760;2023-05-29T15:23:32;21.75;44.56
67502;SHT30;54349;52.528;19.760;2023-05-29T15:26:02;21.54;44.87
67502;SHT30;54349;52.528;19.760;2023-05-29T15:28:31;21.27;45.29
67502;SHT30;54349;52.528;19.760;2023-05-29T15:31:00;21.05;45.67
67502;SHT30;54349;52.528;19.760;2023-05-29T15:33:29;21.20;45.54
67502;SHT30;54349;52.528;19.760;2023-05-29T15:35:58;21.63;44.91
67502;SHT30;54349;52.528;19.760;2023-05-29T15:38:27;21.99;44.19
67502;SHT30;54349;52.528;19.760;2023-05-29T15:40:56;22.14;43.66
67502;SHT30;54349;52.528;19.760;2023-05-29T15:43:25;21.92;43.93
67502;SHT30;54349;52.528;19.760;2023-05-29T15:45:54;21.64;44.28
67502;SHT30;54349;52.528;19.760;2023-05-29T15:48:23;21.40;44.68
67502;SHT30;54349;52.528;19.760;2023-05-29T15:50:51;21.13;45.16
67502;SHT30;54349;52.528;19.760;2023-05-29T15:53:20;21.25;45.18
67502;SHT30;54349;52.528;19.760;2023-05-29T15:55:48;21.66;44.54
67502;SHT30;54349;52.528;19.760;2023-05-29T15:58:16;22.02;43.91
67502;SHT30;54349;52.528;19.760;2023-05-29T16:00:45;22.16;43.38
67502;SHT30;54349;52.528;19.760;2023-05-29T16:03:14;21.91;43.76
67502;SHT30;54349;52.528;19.760;2023-05-29T16:05:43;21.64;44.16